Time;durP1;ratioP1;P1;durP2;ratioP2;P2;SDS_P1;SDS_P2;PMS_P1;PMS_P2;Temp;Humidity;BMP_temperature;BMP_pressure;BME280_temperature;BME280_humidity;BME280_pressure;Samples;Min_cycle;Max_cycle;Signal;HPM_P1;HPM_P2
2021/03/23 00:01:53;;;;;;;10.60;3.17;;;10.00;99.90;;;;;;1914942;73;21093;-71
2021/03/23 00:04:21;;;;;;;8.58;2.52;;;10.00;99.90;;;;;;1911146;73;21166;-71
2021/03/23 00:06:48;;;;;;;10.25;2.45;;;10.00;99.90;;;;;;1913804;73;21603;-71
2021/03/23 00:09:16;;;;;;;5.70;2.30;;;10.00;99.90;;;;;;1911342;73;21110;-71
2021/03/23 00:11:44;;;;;;;8.65;2.37;;;10.00;99.90;;;;;;1914875;73;21101;-71
2021/03/23 00:14:14;;;;;;;6.62;2.30;;;10.00;99.90;;;;;;1915346;73;21117;-71
2021/03/23 00:16:44;;;;;;;5.95;2.30;;;10.00;99.90;;;;;;1912004;73;21511;-70
2021/03/23 00:19:14;;;;;;;6.62;2.17;;;10.00;99.90;;;;;;1914646;73;21617;-71
2021/03/23 00:21:42;;;;;;;6.35;2.22;;;9.90;99.90;;;;;;1914863;73;21532;-71
2021/03/23 00:24:12;;;;;;;5.65;2.08;;;10.00;99.90;;;;;;1913022;73;21178;-71
2021/03/23 00:26:39;;;;;;;5.53;2.00;;;9.90;99.90;;;;;;1912716;73;21748;-70
2021/03/23 00:29:07;;;;;;;3.87;2.08;;;9.90;99.90;;;;;;1910440;73;21077;-70
2021/03/23 00:31:35;;;;;;;6.35;2.37;;;9.90;99.90;;;;;;1918333;73;21034;-71
2021/03/23 00:34:05;;;;;;;4.17;2.12;;;9.90;99.90;;;;;;1916376;73;21168;-71
2021/03/23 00:36:36;;;;;;;4.95;2.22;;;9.90;99.90;;;;;;1918577;73;21170;-71
2021/03/23 00:39:06;;;;;;;8.80;2.47;;;9.90;99.90;;;;;;1916338;73;21082;-70
2021/03/23 00:41:36;;;;;;;5.53;2.20;;;9.80;99.90;;;;;;1913659;73;21113;-71
2021/03/23 00:44:10;;;;;;;5.62;1.77;;;9.80;99.90;;;;;;1913301;73;21472;-71
2021/03/23 00:46:37;;;;;;;6.42;2.22;;;9.90;99.90;;;;;;1917750;73;21096;-70
2021/03/23 00:49:05;;;;;;;6.47;2.12;;;9.80;99.90;;;;;;1911588;73;21026;-70
2021/03/23 00:51:32;;;;;;;7.37;2.62;;;9.90;99.90;;;;;;1914857;73;21102;-71
2021/03/23 00:54:00;;;;;;;4.80;2.25;;;9.90;99.90;;;;;;1909700;73;21132;-70
2021/03/23 00:56:27;;;;;;;7.00;2.67;;;9.90;99.90;;;;;;1915801;73;21042;-71
2021/03/23 00:58:55;;;;;;;5.95;2.27;;;9.90;99.90;;;;;;1915823;73;21448;-71
2021/03/23 01:01:22;;;;;;;6.70;2.55;;;9.90;99.90;;;;;;1913040;73;21178;-71
2021/03/23 01:03:50;;;;;;;4.87;2.20;;;9.90;99.90;;;;;;1914765;73;21159;-71
2021/03/23 01:06:17;;;;;;;5.40;1.98;;;9.90;99.90;;;;;;1917443;73;21074;-71
2021/03/23 01:08:45;;;;;;;4.87;2.10;;;9.80;99.90;;;;;;1908597;73;21166;-70
2021/03/23 01:11:12;;;;;;;4.72;2.12;;;9.80;99.90;;;;;;1912893;73;21520;-71
2021/03/23 01:13:40;;;;;;;7.70;2.50;;;9.80;99.90;;;;;;1915838;73;21168;-70
2021/03/23 01:16:08;;;;;;;7.33;2.60;;;9.80;99.90;;;;;;1917043;73;21153;-71
2021/03/23 01:18:38;;;;;;;7.35;2.47;;;9.70;99.90;;;;;;1916463;73;21082;-70
2021/03/23 01:21:07;;;;;;;5.67;2.67;;;9.80;99.90;;;;;;1913683;73;22159;-71
2021/03/23 01:23:34;;;;;;;6.00;2.62;;;9.70;99.90;;;;;;1914720;73;21109;-71
2021/03/23 01:26:02;;;;;;;6.42;2.65;;;9.80;99.90;;;;;;1916331;73;21030;-70
2021/03/23 01:28:29;;;;;;;5.62;2.80;;;9.80;99.90;;;;;;1920253;73;21090;-71
2021/03/23 01:30:58;;;;;;;6.25;3.10;;;9.80;99.90;;;;;;1916977;73;21600;-71
2021/03/23 01:33:26;;;;;;;5.40;2.77;;;9.70;99.90;;;;;;1913630;73;21163;-70
2021/03/23 01:35:53;;;;;;;5.42;2.77;;;9.70;99.90;;;;;;1915642;73;21242;-70
2021/03/23 01:38:21;;;;;;;4.58;2.70;;;9.70;99.90;;;;;;1915592;73;21536;-71
2021/03/23 01:40:49;;;;;;;8.95;3.02;;;9.70;99.90;;;;;;1910646;73;21534;-71
2021/03/23 01:43:25;;;;;;;6.22;3.10;;;9.70;99.90;;;;;;1912304;73;21139;-71
2021/03/23 01:45:55;;;;;;;8.05;3.58;;;9.70;99.90;;;;;;1915629;73;21129;-71
2021/03/23 01:48:34;;;;;;;5.75;3.00;;;9.70;99.90;;;;;;1916962;73;21166;-70
2021/03/23 01:51:04;;;;;;;8.78;3.95;;;9.70;99.90;;;;;;1912594;73;21132;-72
2021/03/23 01:53:35;;;;;;;7.97;3.47;;;9.60;99.90;;;;;;1914708;73;21097;-70
2021/03/23 01:56:03;;;;;;;9.65;4.00;;;9.60;99.90;;;;;;1910216;73;21699;-70
2021/03/23 01:58:33;;;;;;;11.38;4.10;;;9.50;99.90;;;;;;1912269;73;21086;-70
2021/03/23 02:01:01;;;;;;;8.73;4.03;;;9.50;99.90;;;;;;1911826;73;21132;-70
2021/03/23 02:03:29;;;;;;;9.55;3.98;;;9.50;99.90;;;;;;1913998;73;21147;-69
2021/03/23 02:05:58;;;;;;;8.55;3.85;;;9.50;99.90;;;;;;1912467;73;21086;-70
2021/03/23 02:08:28;;;;;;;6.90;3.60;;;9.50;99.90;;;;;;1916026;73;21098;-69
2021/03/23 02:10:57;;;;;;;9.33;3.42;;;9.50;99.90;;;;;;1914065;73;21125;-69
2021/03/23 02:13:26;;;;;;;6.25;3.17;;;9.50;99.90;;;;;;1914463;73;21030;-69
2021/03/23 02:15:53;;;;;;;6.40;3.42;;;9.50;99.90;;;;;;1914261;73;21158;-70
2021/03/23 02:18:26;;;;;;;6.28;3.02;;;9.60;99.90;;;;;;1918551;73;21087;-70
2021/03/23 02:20:58;;;;;;;7.33;2.90;;;9.60;99.90;;;;;;1917976;73;21054;-70
2021/03/23 02:23:35;;;;;;;7.17;3.55;;;9.60;99.90;;;;;;1911158;73;21105;-70
2021/03/23 02:26:04;;;;;;;7.58;3.52;;;9.60;99.90;;;;;;1916893;73;21375;-70
2021/03/23 02:28:35;;;;;;;5.58;3.37;;;9.60;99.90;;;;;;1920969;73;21087;-70
2021/03/23 02:31:02;;;;;;;8.83;3.50;;;9.60;99.90;;;;;;1903196;73;21631;-70
2021/03/23 02:33:30;;;;;;;7.03;3.65;;;9.50;99.90;;;;;;1910544;73;21077;-71
2021/03/23 02:35:57;;;;;;;6.45;3.40;;;9.60;99.90;;;;;;1914029;73;21128;-70
2021/03/23 02:38:25;;;;;;;7.47;3.58;;;9.60;99.90;;;;;;1915917;73;21069;-70
2021/03/23 02:40:52;;;;;;;11.38;3.62;;;9.50;99.90;;;;;;1910833;73;21559;-70
2021/03/23 02:43:20;;;;;;;8.10;3.67;;;9.50;99.90;;;;;;1912974;73;21535;-71
2021/03/23 02:45:54;;;;;;;8.78;3.50;;;9.50;99.90;;;;;;1915280;73;21093;-70
2021/03/23 02:48:21;;;;;;;6.90;3.60;;;9.60;99.90;;;;;;1909399;73;21229;-71
2021/03/23 02:50:48;;;;;;;8.08;3.55;;;9.60;99.90;;;;;;1913911;73;21167;-71
2021/03/23 02:53:17;;;;;;;8.73;3.50;;;9.60;99.90;;;;;;1915553;73;21066;-70
2021/03/23 02:55:47;;;;;;;8.30;3.40;;;9.50;99.90;;;;;;1919056;73;21077;-70
2021/03/23 02:58:15;;;;;;;5.58;3.37;;;9.60;99.90;;;;;;1916175;73;21125;-72
2021/03/23 03:00:43;;;;;;;5.95;3.80;;;9.50;99.90;;;;;;1912872;73;21214;-73
2021/03/23 03:03:11;;;;;;;7.72;3.50;;;9.50;99.90;;;;;;1918092;73;21522;-70
2021/03/23 03:05:40;;;;;;;5.10;3.42;;;9.50;99.90;;;;;;1914611;73;21021;-71
2021/03/23 03:08:08;;;;;;;8.43;3.40;;;9.60;99.90;;;;;;1916754;73;21862;-70
2021/03/23 03:10:36;;;;;;;6.35;3.40;;;9.60;99.90;;;;;;1910797;73;21187;-70
2021/03/23 03:13:04;;;;;;;9.80;3.72;;;9.50;99.90;;;;;;1914818;73;21144;-71
2021/03/23 03:15:32;;;;;;;12.58;3.65;;;9.50;99.90;;;;;;1909037;73;21089;-71
2021/03/23 03:18:00;;;;;;;7.65;3.58;;;9.60;99.90;;;;;;1917367;73;21144;-72
2021/03/23 03:20:27;;;;;;;7.10;3.50;;;9.50;99.90;;;;;;1921191;73;21131;-70
2021/03/23 03:22:55;;;;;;;7.50;3.83;;;9.50;99.90;;;;;;1915172;73;21105;-70
2021/03/23 03:25:23;;;;;;;8.50;3.25;;;9.50;99.90;;;;;;1921674;73;21248;-71
2021/03/23 03:27:50;;;;;;;7.87;3.40;;;9.50;99.90;;;;;;1921809;73;21100;-71
2021/03/23 03:30:24;;;;;;;9.18;3.65;;;9.60;99.90;;;;;;1915144;73;21088;-72
2021/03/23 03:32:52;;;;;;;7.95;3.90;;;9.60;99.90;;;;;;1914165;73;21011;-71
2021/03/23 03:35:23;;;;;;;6.28;3.12;;;9.60;99.90;;;;;;1913978;73;21062;-71
2021/03/23 03:37:51;;;;;;;8.48;3.80;;;9.60;99.90;;;;;;1914533;73;21084;-71
2021/03/23 03:40:24;;;;;;;9.23;3.92;;;9.60;99.90;;;;;;1913059;73;21371;-70
2021/03/23 03:42:52;;;;;;;10.38;3.92;;;9.60;99.90;;;;;;1913879;73;21026;-71
2021/03/23 03:45:21;;;;;;;7.83;3.27;;;9.60;99.90;;;;;;1918507;73;21062;-70
2021/03/23 03:47:56;;;;;;;8.05;3.42;;;9.60;99.90;;;;;;1913910;73;21082;-71
2021/03/23 03:50:26;;;;;;;9.20;3.55;;;9.60;99.90;;;;;;1918295;73;21102;-70
2021/03/23 03:52:56;;;;;;;7.08;3.30;;;9.60;99.90;;;;;;1910003;73;21154;-71
2021/03/23 03:55:25;;;;;;;6.55;3.70;;;9.50;99.90;;;;;;1915109;73;21519;-71
2021/03/23 03:57:53;;;;;;;7.62;3.33;;;9.60;99.90;;;;;;1914086;73;21065;-71
2021/03/23 04:00:23;;;;;;;7.00;4.03;;;9.60;99.90;;;;;;1914663;73;22232;-71
2021/03/23 04:02:51;;;;;;;7.45;3.50;;;9.60;99.90;;;;;;1914840;73;21150;-71
2021/03/23 04:05:24;;;;;;;8.05;3.67;;;9.60;99.90;;;;;;1916296;73;21780;-71
2021/03/23 04:07:52;;;;;;;6.45;3.70;;;9.60;99.90;;;;;;1913425;73;21085;-72
2021/03/23 04:10:21;;;;;;;9.38;3.98;;;9.60;99.90;;;;;;1911988;73;21105;-72
2021/03/23 04:12:50;;;;;;;8.80;3.92;;;9.50;99.90;;;;;;1910800;73;21093;-71
2021/03/23 04:15:23;;;;;;;9.33;3.80;;;9.50;99.90;;;;;;1915600;73;21606;-71
2021/03/23 04:17:51;;;;;;;10.18;3.95;;;9.50;99.90;;;;;;1914283;73;21037;-71
2021/03/23 04:20:19;;;;;;;9.70;3.77;;;9.60;99.90;;;;;;1904287;71;21164;-72
2021/03/23 04:22:47;;;;;;;10.15;3.62;;;9.60;99.90;;;;;;1878764;74;21029;-71
2021/03/23 04:25:17;;;;;;;10.53;3.65;;;9.60;99.90;;;;;;1879852;74;21119;-72
2021/03/23 04:27:45;;;;;;;11.22;4.20;;;9.60;99.90;;;;;;1880713;75;21077;-71
2021/03/23 04:30:14;;;;;;;9.70;4.25;;;9.60;99.90;;;;;;1879741;75;21148;-71
2021/03/23 04:32:42;;;;;;;7.58;3.85;;;9.50;99.90;;;;;;1883044;74;21077;-71
2021/03/23 04:35:13;;;;;;;8.55;4.00;;;9.60;99.90;;;;;;1880333;74;22256;-71
2021/03/23 04:37:40;;;;;;;10.65;3.87;;;9.60;99.90;;;;;;1872525;74;21174;-71
2021/03/23 04:40:09;;;;;;;10.50;4.20;;;9.60;99.90;;;;;;1878280;75;21050;-71
2021/03/23 04:42:37;;;;;;;11.15;4.22;;;9.50;99.90;;;;;;1876929;74;21377;-71
2021/03/23 04:45:05;;;;;;;7.80;4.30;;;9.40;99.90;;;;;;1880674;74;21199;-71
2021/03/23 04:47:32;;;;;;;10.85;4.05;;;9.40;99.90;;;;;;1879158;74;21171;-71
2021/03/23 04:50:00;;;;;;;7.62;4.30;;;9.50;99.90;;;;;;1877772;74;21688;-71
2021/03/23 04:52:27;;;;;;;7.37;4.45;;;9.50;99.90;;;;;;1881690;74;21097;-71
2021/03/23 04:54:55;;;;;;;7.03;4.08;;;9.50;99.90;;;;;;1873765;74;21141;-71
2021/03/23 04:57:22;;;;;;;7.47;4.62;;;9.60;99.90;;;;;;1879075;74;21384;-71
2021/03/23 04:59:50;;;;;;;10.13;4.55;;;9.50;99.90;;;;;;1872338;74;21204;-72
2021/03/23 05:02:17;;;;;;;7.40;4.08;;;9.50;99.90;;;;;;1877458;74;21543;-71
2021/03/23 05:04:45;;;;;;;11.15;4.45;;;9.50;99.90;;;;;;1885916;74;21652;-71
2021/03/23 05:07:12;;;;;;;6.10;3.90;;;9.60;99.90;;;;;;1885495;74;21215;-71
2021/03/23 05:09:40;;;;;;;8.28;4.08;;;9.60;99.90;;;;;;1878327;75;21113;-71
2021/03/23 05:12:09;;;;;;;9.45;4.72;;;9.60;99.90;;;;;;1883230;74;21179;-71
2021/03/23 05:14:36;;;;;;;7.60;4.33;;;9.60;99.90;;;;;;1874897;74;21117;-71
2021/03/23 05:17:04;;;;;;;6.53;4.17;;;9.60;99.90;;;;;;1874829;74;21669;-71
2021/03/23 05:19:32;;;;;;;13.13;4.50;;;9.60;99.90;;;;;;1880384;74;21115;-71
2021/03/23 05:21:59;;;;;;;8.80;4.35;;;9.60;99.90;;;;;;1877302;74;21657;-71
2021/03/23 05:24:27;;;;;;;7.75;5.00;;;9.50;99.90;;;;;;1873223;74;21158;-71
2021/03/23 05:26:54;;;;;;;7.85;4.60;;;9.50;99.90;;;;;;1874272;74;21178;-71
2021/03/23 05:29:22;;;;;;;10.23;4.83;;;9.60;99.90;;;;;;1878559;74;21080;-71
2021/03/23 05:31:49;;;;;;;10.08;4.50;;;9.60;99.90;;;;;;1873544;74;21431;-71
2021/03/23 05:34:17;;;;;;;13.95;5.22;;;9.60;99.90;;;;;;1877179;74;21566;-70
2021/03/23 05:36:45;;;;;;;10.30;4.03;;;9.60;99.90;;;;;;1879093;74;21112;-70
2021/03/23 05:39:13;;;;;;;9.88;4.50;;;9.50;99.90;;;;;;1878494;75;21133;-70
2021/03/23 05:41:46;;;;;;;10.23;4.20;;;9.60;99.90;;;;;;1875197;74;21246;-71
2021/03/23 05:44:19;;;;;;;9.45;4.45;;;9.50;99.90;;;;;;1881948;74;21172;-71
2021/03/23 05:46:47;;;;;;;9.80;4.47;;;9.60;99.90;;;;;;1878805;74;21700;-71
2021/03/23 05:49:39;;;;;;;10.25;4.20;;;9.50;99.90;;;;;;1883898;74;21062;-71
2021/03/23 05:52:14;;;;;;;8.85;4.60;;;9.60;99.90;;;;;;1873991;74;21097;-70
2021/03/23 05:55:02;;;;;;;8.20;4.22;;;9.50;99.90;;;;;;1879511;75;21093;-70
2021/03/23 05:57:39;;;;;;;9.23;4.90;;;9.50;99.90;;;;;;1877187;75;21606;-69
2021/03/23 06:00:21;;;;;;;11.57;4.33;;;9.60;99.90;;;;;;1884615;75;21144;-70
2021/03/23 06:03:06;;;;;;;;;;;9.60;99.90;;;;;;1880356;75;21074;-69
2021/03/23 06:05:51;;;;;;;11.97;4.55;;;9.50;99.90;;;;;;1877606;75;20158;-70
2021/03/23 06:08:31;;;;;;;6.60;4.00;;;9.50;99.90;;;;;;1835701;74;21070;-70
2021/03/23 06:11:10;;;;;;;10.10;4.60;;;9.50;99.90;;;;;;1880566;74;21137;-70
2021/03/23 06:13:41;;;;;;;9.68;4.80;;;9.50;99.90;;;;;;1880292;74;21093;-70
2021/03/23 06:16:33;;;;;;;8.30;4.17;;;9.50;99.90;;;;;;1876875;74;21654;-69
2021/03/23 06:19:06;;;;;;;12.93;4.70;;;9.50;99.90;;;;;;1838952;74;21195;-68
2021/03/23 06:21:37;;;;;;;8.23;4.25;;;9.60;99.90;;;;;;1882120;74;21137;-70
2021/03/23 06:24:31;;;;;;;12.20;4.87;;;9.60;99.90;;;;;;1878708;74;21105;-73
2021/03/23 06:27:37;;;;;;;10.80;4.50;;;9.60;99.90;;;;;;1882429;74;21235;-70
2021/03/23 06:30:22;;;;;;;10.35;4.47;;;9.60;99.90;;;;;;1875822;73;21117;-70
2021/03/23 06:32:52;;;;;;;10.60;5.35;;;9.50;99.90;;;;;;1875892;74;21094;-71
2021/03/23 06:35:40;;;;;;;12.65;5.17;;;9.60;99.90;;;;;;1882061;74;21057;-68
2021/03/23 06:38:09;;;;;;;10.13;4.90;;;9.60;99.90;;;;;;1882867;74;21073;-70
2021/03/23 06:40:37;;;;;;;11.68;5.15;;;9.60;99.90;;;;;;1877840;75;21137;-71
2021/03/23 06:43:30;;;;;;;8.20;4.83;;;9.70;99.90;;;;;;1887765;74;21178;-71
2021/03/23 06:46:04;;;;;;;14.80;5.05;;;9.70;99.90;;;;;;1883620;75;21191;-70
2021/03/23 06:48:33;;;;;;;13.65;4.95;;;9.60;99.90;;;;;;1877297;74;21103;-70
2021/03/23 06:51:13;;;;;;;13.43;5.22;;;9.60;99.90;;;;;;1876442;74;21686;-72
2021/03/23 06:53:42;;;;;;;12.00;5.00;;;9.60;99.90;;;;;;1878706;74;21147;-71
2021/03/23 06:56:21;;;;;;;11.43;5.12;;;9.60;99.90;;;;;;1877953;75;21206;-72
2021/03/23 06:59:08;;;;;;;11.05;5.10;;;9.60;99.90;;;;;;1876710;75;21066;-70
2021/03/23 07:01:47;;;;;;;11.38;4.80;;;9.60;99.90;;;;;;1877117;75;21606;-70
2021/03/23 07:04:38;;;;;;;12.00;5.75;;;9.50;99.90;;;;;;1879344;75;21085;-70
2021/03/23 07:07:13;;;;;;;8.90;4.80;;;9.50;99.90;;;;;;1879066;75;21125;-70
2021/03/23 07:09:55;;;;;;;10.98;5.62;;;9.60;99.90;;;;;;1879541;74;21222;-71
2021/03/23 07:12:41;;;;;;;10.68;5.40;;;9.60;99.90;;;;;;1878212;75;21143;-69
2021/03/23 07:15:14;;;;;;;10.48;5.17;;;9.50;99.90;;;;;;1880446;74;21099;-69
2021/03/23 07:17:45;;;;;;;11.33;4.90;;;9.50;99.90;;;;;;1878684;74;21172;-69
2021/03/23 07:20:30;;;;;;;12.28;5.55;;;9.60;99.90;;;;;;1882969;74;21133;-69
2021/03/23 07:22:58;;;;;;;16.32;5.85;;;9.60;99.90;;;;;;1882129;74;21030;-70
2021/03/23 07:25:37;;;;;;;12.78;5.83;;;9.70;99.90;;;;;;1881462;74;21166;-69
2021/03/23 07:28:37;;;;;;;10.03;5.42;;;9.70;99.90;;;;;;1877942;75;21113;-69
2021/03/23 07:31:10;;;;;;;12.28;5.78;;;9.70;99.90;;;;;;1882615;74;21164;-68
2021/03/23 07:33:58;;;;;;;15.00;6.10;;;9.70;99.90;;;;;;1879274;74;21107;-68
2021/03/23 07:36:39;;;;;;;11.53;6.28;;;9.80;99.90;;;;;;1883905;74;21103;-68
2021/03/23 07:39:44;;;;;;;19.30;6.20;;;9.80;99.90;;;;;;1882701;75;21022;-68
2021/03/23 07:42:25;;;;;;;14.30;6.37;;;9.90;99.90;;;;;;1881637;74;21028;-68
2021/03/23 07:44:53;;;;;;;15.72;6.53;;;9.90;99.90;;;;;;1879834;75;21039;-68
2021/03/23 07:47:29;;;;;;;18.15;6.78;;;10.00;99.90;;;;;;1881441;75;21031;-68
2021/03/23 07:50:05;;;;;;;17.60;7.40;;;10.00;99.90;;;;;;1886854;75;21134;-68
2021/03/23 07:52:55;;;;;;;15.93;7.47;;;10.00;99.90;;;;;;1880317;74;21020;-68
2021/03/23 07:55:26;;;;;;;13.15;7.03;;;10.10;99.90;;;;;;1877206;75;21038;-68
2021/03/23 07:58:11;;;;;;;15.65;8.03;;;10.10;99.90;;;;;;1883442;74;21178;-68
2021/03/23 08:01:01;;;;;;;15.80;8.45;;;10.20;99.90;;;;;;1876112;75;21216;-68
2021/03/23 08:03:53;;;;;;;18.55;9.75;;;10.20;99.90;;;;;;1882373;74;21493;-68
2021/03/23 08:06:45;;;;;;;17.02;9.20;;;10.20;99.90;;;;;;1884043;75;21695;-68
2021/03/23 08:09:31;;;;;;;16.85;10.10;;;10.10;99.90;;;;;;1884322;75;21041;-68
2021/03/23 08:12:35;;;;;;;20.00;10.18;;;10.00;99.90;;;;;;1882590;74;21034;-69
2021/03/23 08:15:14;;;;;;;21.20;10.28;;;10.00;99.90;;;;;;1883004;75;21567;-68
2021/03/23 08:18:00;;;;;;;21.20;10.90;;;10.10;99.90;;;;;;1880420;75;21074;-70
2021/03/23 08:20:53;;;;;;;20.30;11.40;;;10.00;99.90;;;;;;1875586;75;21602;-69
2021/03/23 08:23:43;;;;;;;23.98;12.03;;;10.00;99.90;;;;;;1879971;75;21112;-69
2021/03/23 08:26:22;;;;;;;21.07;13.10;;;10.00;99.90;;;;;;1880701;75;21141;-69
2021/03/23 08:29:11;;;;;;;24.02;13.25;;;10.00;99.90;;;;;;1879563;74;21673;-69
2021/03/23 08:31:56;;;;;;;25.68;14.25;;;10.00;99.90;;;;;;1878398;75;21390;-69
2021/03/23 08:34:39;;;;;;;28.73;14.43;;;9.90;99.90;;;;;;1878999;74;21159;-69
2021/03/23 08:37:31;;;;;;;24.85;14.43;;;9.90;99.90;;;;;;1879483;74;21202;-69
2021/03/23 08:40:07;;;;;;;27.27;14.75;;;10.00;99.90;;;;;;1881319;75;21129;-68
2021/03/23 08:42:37;;;;;;;25.50;14.78;;;10.00;99.90;;;;;;1881571;75;21074;-68
2021/03/23 08:45:28;;;;;;;27.87;15.72;;;10.00;99.90;;;;;;1885585;75;21086;-69
2021/03/23 08:48:08;;;;;;;27.60;15.30;;;10.10;99.90;;;;;;1883873;75;21137;-71
2021/03/23 08:50:42;;;;;;;25.97;14.68;;;10.10;99.90;;;;;;1880517;75;21070;-69
2021/03/23 08:53:32;;;;;;;28.10;15.65;;;10.20;99.90;;;;;;1880831;75;21218;-68
2021/03/23 08:56:02;;;;;;;24.37;15.80;;;10.20;99.90;;;;;;1886563;74;21145;-71
2021/03/23 09:01:38;;;;;;;26.48;15.05;;;10.20;99.90;;;;;;1887316;74;21126;-70
2021/03/23 09:04:11;;;;;;;31.37;17.50;;;10.20;99.90;;;;;;1883808;74;21136;-69
2021/03/23 09:06:48;;;;;;;24.67;15.68;;;10.30;99.90;;;;;;1875933;75;21225;-70
2021/03/23 09:09:33;;;;;;;27.30;16.55;;;10.20;99.90;;;;;;1882047;75;21224;-70
2021/03/23 09:12:28;;;;;;;25.85;15.90;;;10.20;99.90;;;;;;1878291;75;21127;-70
2021/03/23 09:15:18;;;;;;;28.73;15.35;;;10.20;99.90;;;;;;1881724;75;21133;-69
2021/03/23 09:18:05;;;;;;;24.23;15.30;;;10.30;99.90;;;;;;1883125;74;21188;-70
2021/03/23 09:20:40;;;;;;;28.00;15.40;;;10.40;99.90;;;;;;1880727;74;21559;-70
2021/03/23 09:23:24;;;;;;;26.52;15.05;;;10.40;99.90;;;;;;1877902;75;21669;-70
2021/03/23 09:26:01;;;;;;;26.57;15.32;;;10.40;99.90;;;;;;1882710;74;21133;-70
2021/03/23 09:28:40;;;;;;;27.37;15.65;;;10.40;99.90;;;;;;1882032;75;21227;-71
2021/03/23 09:31:16;;;;;;;24.23;14.55;;;10.40;99.90;;;;;;1876652;74;21188;-70
2021/03/23 09:33:48;;;;;;;27.35;15.10;;;10.50;99.90;;;;;;1884454;75;21150;-69
2021/03/23 09:36:24;;;;;;;21.42;13.45;;;10.50;99.90;;;;;;1877549;75;21540;-70
2021/03/23 09:38:48;;;;;;;;;;;10.50;99.90;;;;;;1883915;75;21113;-70
2021/03/23 09:41:27;;;;;;;26.65;15.15;;;10.60;99.90;;;;;;1880069;75;20163;-70
2021/03/23 09:44:09;;;;;;;24.47;13.88;;;10.60;99.90;;;;;;1880334;75;21199;-69
2021/03/23 09:46:56;;;;;;;22.52;14.13;;;10.60;99.90;;;;;;1883532;74;21542;-70
2021/03/23 09:49:27;;;;;;;24.37;14.07;;;10.70;99.90;;;;;;1876458;75;21141;-70
2021/03/23 09:52:04;;;;;;;24.98;14.60;;;10.70;99.90;;;;;;1875853;75;21169;-68
2021/03/23 09:54:53;;;;;;;23.05;14.47;;;10.70;99.90;;;;;;1881133;74;22019;-69
2021/03/23 09:57:24;;;;;;;28.83;15.05;;;10.70;99.90;;;;;;1879146;75;21070;-70
2021/03/23 09:59:55;;;;;;;25.90;15.43;;;10.70;99.90;;;;;;1882208;74;21058;-69
2021/03/23 10:02:32;;;;;;;21.25;14.63;;;10.70;99.90;;;;;;1879880;75;21047;-69
2021/03/23 10:05:18;;;;;;;23.60;15.13;;;10.70;99.90;;;;;;1878420;75;21038;-69
2021/03/23 10:07:47;;;;;;;24.72;15.48;;;10.80;99.90;;;;;;1882248;75;21577;-69
2021/03/23 10:10:23;;;;;;;27.27;16.30;;;10.80;99.90;;;;;;1883011;75;21120;-68
2021/03/23 10:12:51;;;;;;;31.27;17.10;;;10.80;99.90;;;;;;1884440;75;21627;-69
2021/03/23 10:15:21;;;;;;;25.00;16.67;;;10.80;99.90;;;;;;1879457;75;21116;-69
2021/03/23 10:17:50;;;;;;;31.12;18.20;;;10.90;99.90;;;;;;1873268;75;21503;-66
2021/03/23 10:20:22;;;;;;;26.95;17.48;;;10.90;99.90;;;;;;1877501;74;21079;-68
2021/03/23 10:22:54;;;;;;;30.92;18.37;;;10.90;99.90;;;;;;1883818;75;21097;-69
2021/03/23 10:25:24;;;;;;;26.12;17.90;;;11.00;99.90;;;;;;1882965;74;21087;-68
2021/03/23 10:27:51;;;;;;;31.75;18.35;;;11.00;99.90;;;;;;1884951;75;21112;-68
2021/03/23 10:30:35;;;;;;;29.35;17.55;;;11.00;99.90;;;;;;1875251;75;21141;-69
2021/03/23 10:33:25;;;;;;;26.52;17.27;;;11.00;99.90;;;;;;1879173;75;21175;-69
2021/03/23 10:35:56;;;;;;;28.00;17.80;;;10.90;99.90;;;;;;1881266;75;21063;-69
2021/03/23 10:38:29;;;;;;;29.00;18.75;;;11.00;99.90;;;;;;1878278;75;21516;-68
2021/03/23 10:41:02;;;;;;;31.60;19.98;;;11.00;99.90;;;;;;1878345;75;21229;-69
2021/03/23 10:43:41;;;;;;;31.10;19.23;;;11.00;99.90;;;;;;1876751;74;21194;-69
2021/03/23 10:46:35;;;;;;;31.48;20.45;;;11.10;99.90;;;;;;1878751;75;22173;-69
2021/03/23 10:49:18;;;;;;;34.23;20.77;;;11.10;99.90;;;;;;1879909;75;21128;-69
2021/03/23 10:51:48;;;;;;;30.15;19.15;;;11.20;99.90;;;;;;1880540;75;21077;-69
2021/03/23 10:54:31;;;;;;;31.20;19.65;;;11.10;99.90;;;;;;1877904;75;21085;-66
2021/03/23 10:57:01;;;;;;;32.80;21.33;;;11.10;99.90;;;;;;1884970;74;21074;-67
2021/03/23 10:59:31;;;;;;;29.98;19.17;;;11.20;99.90;;;;;;1852944;75;21159;-69
2021/03/23 11:02:08;;;;;;;29.98;20.30;;;11.30;99.90;;;;;;1877036;75;21758;-68
2021/03/23 11:04:38;;;;;;;35.45;20.20;;;11.30;99.90;;;;;;1878958;75;21215;-68
2021/03/23 11:07:23;;;;;;;37.05;21.77;;;11.40;99.90;;;;;;1877013;75;21085;-68
2021/03/23 11:09:54;;;;;;;32.70;19.90;;;11.40;99.90;;;;;;1880635;75;21432;-68
2021/03/23 11:12:22;;;;;;;34.20;22.48;;;11.40;99.90;;;;;;1881202;75;21058;-68
2021/03/23 11:14:50;;;;;;;33.65;22.37;;;11.40;99.90;;;;;;1881424;75;21102;-69
2021/03/23 11:17:21;;;;;;;33.88;22.67;;;11.40;99.90;;;;;;1883095;75;21551;-69
2021/03/23 11:19:52;;;;;;;36.90;22.25;;;11.40;99.90;;;;;;1882300;74;21669;-69
2021/03/23 11:22:29;;;;;;;32.78;22.30;;;11.40;99.90;;;;;;1884235;75;21034;-69
2021/03/23 11:24:57;;;;;;;34.15;22.73;;;11.40;99.90;;;;;;1882806;74;21206;-70
2021/03/23 11:27:28;;;;;;;34.35;22.85;;;11.40;99.90;;;;;;1884881;74;21091;-70
2021/03/23 11:30:02;;;;;;;35.65;22.95;;;11.50;99.90;;;;;;1878242;74;21732;-69
2021/03/23 11:32:29;;;;;;;37.55;22.85;;;11.60;99.90;;;;;;1873882;75;21093;-70
2021/03/23 11:34:57;;;;;;;36.13;22.77;;;11.60;99.90;;;;;;1877734;75;21221;-69
2021/03/23 11:37:24;;;;;;;33.78;22.60;;;11.60;99.90;;;;;;1880809;75;21582;-69
2021/03/23 11:39:52;;;;;;;34.48;21.68;;;11.60;99.90;;;;;;1879109;75;21226;-69
2021/03/23 11:42:31;;;;;;;34.78;22.32;;;11.70;99.90;;;;;;1879064;75;21151;-70
2021/03/23 11:45:05;;;;;;;32.53;20.52;;;11.80;99.90;;;;;;1879634;75;21098;-69
2021/03/23 11:47:42;;;;;;;30.48;21.30;;;11.80;99.90;;;;;;1879586;74;21078;-69
2021/03/23 11:50:20;;;;;;;32.30;20.80;;;11.80;99.90;;;;;;1878942;74;21556;-69
2021/03/23 11:52:52;;;;;;;35.13;22.35;;;11.80;99.90;;;;;;1881039;74;21109;-70
2021/03/23 11:55:25;;;;;;;38.35;22.73;;;11.90;99.90;;;;;;1876208;74;21132;-69
2021/03/23 11:57:53;;;;;;;32.03;22.55;;;12.00;99.90;;;;;;1879379;74;21599;-70
2021/03/23 12:00:24;;;;;;;32.58;21.62;;;12.00;99.90;;;;;;1873780;74;21163;-69
2021/03/23 12:02:52;;;;;;;27.98;20.08;;;12.10;99.90;;;;;;1881276;74;21164;-70
2021/03/23 12:05:20;;;;;;;32.85;21.77;;;12.10;99.90;;;;;;1879503;74;21105;-70
2021/03/23 12:08:07;;;;;;;30.88;20.85;;;12.10;99.90;;;;;;1879468;74;21179;-69
2021/03/23 12:10:38;;;;;;;28.92;20.40;;;12.20;99.90;;;;;;1872583;74;21391;-69
2021/03/23 12:13:14;;;;;;;32.15;22.90;;;12.10;99.90;;;;;;1878138;75;21082;-70
2021/03/23 12:15:48;;;;;;;31.95;22.07;;;12.20;99.90;;;;;;1879659;74;21230;-68
2021/03/23 12:18:18;;;;;;;39.20;23.55;;;12.20;99.90;;;;;;1875583;74;21567;-71
2021/03/23 12:20:54;;;;;;;32.50;23.25;;;12.10;99.90;;;;;;1883330;74;21541;-70
2021/03/23 12:23:15;;;;;;;35.73;22.67;;;12.20;99.90;;;;;;1877125;74;21124;-70
2021/03/23 12:25:43;;;;;;;30.90;22.35;;;12.20;99.90;;;;;;1884480;74;21171;-69
2021/03/23 12:28:10;;;;;;;42.03;22.95;;;12.20;99.90;;;;;;1876694;74;21133;-68
2021/03/23 12:30:38;;;;;;;34.73;22.87;;;12.20;99.90;;;;;;1876918;75;21117;-67
2021/03/23 12:33:06;;;;;;;37.85;22.27;;;12.20;99.90;;;;;;1876392;75;21110;-70
2021/03/23 12:35:33;;;;;;;32.55;23.92;;;12.30;99.90;;;;;;1878552;74;21192;-68
2021/03/23 12:38:04;;;;;;;36.08;23.77;;;12.30;99.90;;;;;;1882670;75;21149;-68
2021/03/23 12:40:34;;;;;;;32.88;21.90;;;12.20;99.90;;;;;;1874818;75;21078;-68
2021/03/23 12:43:02;;;;;;;31.07;22.00;;;12.20;99.90;;;;;;1879465;75;21803;-67
2021/03/23 12:45:35;;;;;;;41.55;23.75;;;12.30;99.90;;;;;;1881353;74;20991;-68
2021/03/23 12:48:03;;;;;;;36.10;23.67;;;12.30;99.90;;;;;;1881825;74;21085;-68
2021/03/23 12:50:31;;;;;;;31.52;22.48;;;12.30;99.90;;;;;;1879966;75;22237;-68
2021/03/23 12:53:01;;;;;;;37.73;24.32;;;12.30;99.90;;;;;;1885992;75;21741;-67
2021/03/23 12:55:31;;;;;;;35.00;23.52;;;12.30;99.90;;;;;;1880025;74;21151;-67
2021/03/23 12:58:01;;;;;;;37.60;24.37;;;12.30;99.90;;;;;;1880832;75;21202;-66
2021/03/23 13:00:35;;;;;;;40.25;25.23;;;12.40;99.90;;;;;;1884274;74;21610;-69
2021/03/23 13:03:03;;;;;;;35.28;23.62;;;12.40;99.90;;;;;;1888201;75;21158;-70
2021/03/23 13:05:32;;;;;;;38.23;24.07;;;12.40;99.90;;;;;;1883419;75;21088;-70
2021/03/23 13:08:03;;;;;;;37.33;24.40;;;12.40;99.90;;;;;;1881491;74;21198;-70
2021/03/23 13:13:34;;;;;;;35.48;25.50;;;12.50;99.90;;;;;;1848171;76;21218;-70
2021/03/23 13:16:03;;;;;;;34.58;23.15;;;12.50;99.90;;;;;;1851166;76;21160;-70
2021/03/23 13:18:31;;;;;;;35.03;23.65;;;12.60;99.90;;;;;;1861287;75;21501;-68
2021/03/23 13:21:01;;;;;;;38.02;23.92;;;12.60;99.90;;;;;;1856567;76;22031;-68